Time;durP1;ratioP1;P1;durP2;ratioP2;P2;SDS_P1;SDS_P2;PMS_P1;PMS_P2;Temp;Humidity;BMP_temperature;BMP_pressure;BME280_temperature;BME280_humidity;BME280_pressure;Samples;Min_cycle;Max_cycle;Signal;HPM_P1;HPM_P2
2022/11/09 00:01:37;;;;;;;6.90;2.20;;;;;;;15.22;66.72;99404.59;5066097;28;20552;-62
2022/11/09 00:04:06;;;;;;;5.20;1.80;;;;;;;15.07;67.05;99408.19;5069533;28;20449;-62
2022/11/09 00:06:34;;;;;;;2.13;1.70;;;;;;;15.04;67.28;99395.09;5062026;28;20477;-62
2022/11/09 00:09:01;;;;;;;2.97;1.60;;;;;;;15.07;67.37;99396.59;5072120;28;20488;-62
2022/11/09 00:11:28;;;;;;;3.30;1.87;;;;;;;15.11;67.17;99389.81;5062457;28;20477;-62
2022/11/09 00:13:55;;;;;;;4.40;2.13;;;;;;;15.09;67.21;99399.94;5068326;28;20472;-61
2022/11/09 00:16:22;;;;;;;2.40;1.67;;;;;;;15.10;67.19;99400.75;5079760;28;20492;-62
2022/11/09 00:18:50;;;;;;;3.80;1.83;;;;;;;15.14;67.23;99402.06;5060889;28;20469;-61
2022/11/09 00:21:20;;;;;;;2.33;1.70;;;;;;;15.05;67.31;99387.84;5070325;28;20472;-62
2022/11/09 00:23:46;;;;;;;2.87;1.90;;;;;;;15.01;67.78;99400.88;5073213;28;20442;-61
2022/11/09 00:26:14;;;;;;;5.43;1.50;;;;;;;15.03;67.68;99409.63;5065257;28;20499;-62
2022/11/09 00:28:41;;;;;;;4.77;2.10;;;;;;;15.11;67.42;99403.25;5080984;28;20523;-62
2022/11/09 00:31:10;;;;;;;2.10;1.70;;;;;;;15.06;67.33;99395.75;5075564;28;20473;-62
2022/11/09 00:33:37;;;;;;;2.00;1.50;;;;;;;15.06;67.55;99393.06;5071990;28;21016;-62
2022/11/09 00:36:07;;;;;;;2.10;1.70;;;;;;;15.15;67.20;99391.06;5076061;28;20460;-62
2022/11/09 00:38:35;;;;;;;2.40;1.53;;;;;;;15.17;67.03;99391.75;5077982;28;20489;-62
2022/11/09 00:41:02;;;;;;;3.37;2.13;;;;;;;15.18;67.20;99388.00;5082656;28;20472;-62
2022/11/09 00:43:29;;;;;;;2.27;1.40;;;;;;;15.14;67.28;99386.72;5086610;28;20491;-62
2022/11/09 00:45:55;;;;;;;3.93;1.70;;;;;;;15.25;66.92;99385.38;5084224;28;20782;-62
2022/11/09 00:48:22;;;;;;;2.10;1.30;;;;;;;15.10;67.52;99392.69;5083449;28;20472;-63
2022/11/09 00:50:49;;;;;;;2.90;1.83;;;;;;;15.15;67.30;99390.25;5102102;28;20471;-62
2022/11/09 00:53:16;;;;;;;2.30;1.57;;;;;;;15.21;66.93;99390.31;5094520;28;20480;-62
2022/11/09 00:55:53;;;;;;;2.83;1.50;;;;;;;15.25;66.97;99390.78;5084416;28;20499;-62
2022/11/09 00:58:20;;;;;;;5.07;1.87;;;;;;;15.23;67.05;99388.25;5101721;28;20507;-62
2022/11/09 01:00:46;;;;;;;1.77;1.30;;;;;;;15.30;66.87;99392.91;5103991;28;20486;-62
2022/11/09 01:03:13;;;;;;;3.43;1.60;;;;;;;15.29;66.95;99402.00;5104745;28;20459;-62
2022/11/09 01:05:39;;;;;;;2.90;1.80;;;;;;;15.25;66.93;99401.53;5087537;28;20492;-62
2022/11/09 01:08:06;;;;;;;2.80;1.33;;;;;;;15.25;67.00;99388.91;5097163;28;20451;-62
2022/11/09 01:10:33;;;;;;;1.67;1.50;;;;;;;15.19;67.37;99403.16;5103168;28;20563;-63
2022/11/09 01:13:01;;;;;;;2.67;1.40;;;;;;;15.17;67.50;99391.75;5089920;28;20463;-62
2022/11/09 01:15:28;;;;;;;2.80;1.50;;;;;;;15.25;67.12;99396.97;5097004;28;20506;-63
2022/11/09 01:17:54;;;;;;;2.43;1.77;;;;;;;15.30;67.14;99403.66;5101150;28;21106;-62
2022/11/09 01:20:21;;;;;;;3.50;1.60;;;;;;;15.29;66.86;99400.13;5102029;28;20956;-62
2022/11/09 01:22:48;;;;;;;3.40;1.60;;;;;;;15.29;66.93;99402.81;5099567;28;20960;-62
2022/11/09 01:25:15;;;;;;;2.50;1.27;;;;;;;15.36;66.91;99401.03;5084360;28;20471;-61
2022/11/09 01:27:41;;;;;;;2.50;1.40;;;;;;;15.24;67.45;99405.25;5101034;28;20514;-62
2022/11/09 01:30:10;;;;;;;3.27;1.77;;;;;;;15.36;66.93;99400.19;5090974;28;20468;-61
2022/11/09 01:32:37;;;;;;;4.00;1.30;;;;;;;15.36;66.53;99387.56;5089617;28;20992;-62
2022/11/09 01:35:05;;;;;;;1.47;1.10;;;;;;;15.33;67.10;99393.34;5095460;28;20447;-62
2022/11/09 01:37:31;;;;;;;5.03;1.43;;;;;;;15.36;66.89;99386.72;5089359;28;20479;-62
2022/11/09 01:39:58;;;;;;;2.77;1.40;;;;;;;15.31;67.06;99387.31;5095917;28;20472;-61
2022/11/09 01:42:25;;;;;;;1.73;1.30;;;;;;;15.28;67.19;99385.00;5091425;28;20553;-62
2022/11/09 01:45:25;;;;;;;3.23;1.20;;;;;;;15.42;66.59;99392.19;5093802;28;20443;-61
2022/11/09 01:47:56;;;;;;;2.67;1.33;;;;;;;15.37;66.82;99389.22;5088730;28;20490;-61
2022/11/09 01:50:29;;;;;;;2.97;1.50;;;;;;;15.35;66.89;99390.47;5095507;28;20472;-61
2022/11/09 01:52:56;;;;;;;2.10;1.30;;;;;;;15.36;66.67;99392.97;5085014;28;20964;-61
2022/11/09 01:55:24;;;;;;;2.80;1.40;;;;;;;15.41;66.86;99378.91;5103074;28;20474;-62
2022/11/09 01:57:57;;;;;;;1.20;0.97;;;;;;;15.38;66.84;99387.34;5099582;28;20966;-61
2022/11/09 02:00:25;;;;;;;2.60;1.07;;;;;;;15.34;67.08;99383.41;5102802;28;20482;-61
2022/11/09 02:02:54;;;;;;;1.63;1.30;;;;;;;15.39;67.07;99389.03;5097542;28;20482;-61
2022/11/09 02:05:24;;;;;;;3.83;1.67;;;;;;;15.43;66.92;99383.09;5096478;28;20480;-61
2022/11/09 02:07:51;;;;;;;2.47;1.20;;;;;;;15.36;66.85;99381.34;5083341;28;20459;-61
2022/11/09 02:10:23;;;;;;;1.80;1.30;;;;;;;15.40;66.95;99372.69;5099329;28;20447;-61
2022/11/09 02:12:49;;;;;;;2.90;1.20;;;;;;;15.27;67.41;99369.88;5095156;28;20491;-61
2022/11/09 02:15:16;;;;;;;3.40;1.53;;;;;;;15.37;67.00;99370.38;5092778;28;20464;-62
2022/11/09 02:17:44;;;;;;;2.60;1.27;;;;;;;15.40;66.71;99369.16;5082451;28;20516;-62
2022/11/09 02:20:14;;;;;;;2.13;1.30;;;;;;;15.35;66.94;99377.81;5083178;28;20441;-61
2022/11/09 02:22:41;;;;;;;2.17;1.10;;;;;;;15.31;67.20;99373.00;5082397;28;20472;-62
2022/11/09 02:25:09;;;;;;;3.67;1.30;;;;;;;15.36;66.98;99366.03;5084609;28;20437;-62
2022/11/09 02:27:36;;;;;;;4.20;2.67;;;;;;;15.29;67.30;99370.50;5096815;28;20455;-62
2022/11/09 02:30:04;;;;;;;2.50;1.40;;;;;;;15.27;67.41;99377.13;5085773;28;20452;-62
2022/11/09 02:32:31;;;;;;;2.53;1.30;;;;;;;15.33;67.30;99369.09;5101496;28;20870;-62
2022/11/09 02:34:58;;;;;;;1.90;1.63;;;;;;;15.32;67.27;99377.38;5100874;28;21000;-62
2022/11/09 02:37:32;;;;;;;2.90;1.83;;;;;;;15.31;67.39;99373.00;5092311;28;20490;-63
2022/11/09 02:40:05;;;;;;;3.23;1.23;;;;;;;15.32;67.50;99382.75;5102530;28;20483;-62
2022/11/09 02:42:31;;;;;;;3.40;1.30;;;;;;;15.27;67.58;99377.13;5082085;28;20515;-62
2022/11/09 02:44:59;;;;;;;1.93;1.27;;;;;;;15.13;68.04;99357.31;5090153;28;20527;-62
2022/11/09 02:47:26;;;;;;;1.33;0.93;;;;;;;15.16;68.24;99357.75;5101483;28;20479;-62
2022/11/09 02:49:53;;;;;;;1.53;1.20;;;;;;;15.14;67.95;99358.97;5084637;28;20442;-61
2022/11/09 02:52:20;;;;;;;2.63;1.20;;;;;;;15.18;67.86;99357.56;5089842;28;20995;-62
2022/11/09 02:54:48;;;;;;;2.20;1.70;;;;;;;15.17;68.00;99366.66;5084119;28;20996;-62
2022/11/09 02:57:14;;;;;;;1.63;1.20;;;;;;;15.22;67.98;99365.06;5081517;28;20503;-62
2022/11/09 02:59:41;;;;;;;1.90;1.20;;;;;;;15.14;68.26;99362.50;5083385;28;20483;-62
2022/11/09 03:02:08;;;;;;;3.67;1.20;;;;;;;15.06;68.59;99358.06;5081246;28;20518;-62
2022/11/09 03:04:35;;;;;;;3.20;1.30;;;;;;;15.07;68.86;99354.34;5095284;28;20447;-62
2022/11/09 03:07:01;;;;;;;1.57;1.30;;;;;;;15.13;68.53;99358.13;5092295;28;20475;-62
2022/11/09 03:09:28;;;;;;;2.57;1.23;;;;;;;15.09;68.71;99361.41;5093714;28;20483;-62
2022/11/09 03:11:56;;;;;;;2.00;1.10;;;;;;;15.13;68.97;99360.81;5085330;28;20495;-62
2022/11/09 03:14:23;;;;;;;1.60;1.10;;;;;;;15.07;69.43;99357.03;5081045;28;20953;-62
2022/11/09 03:16:49;;;;;;;1.40;1.30;;;;;;;15.00;69.85;99369.59;5081424;28;20556;-61
2022/11/09 03:19:16;;;;;;;1.73;1.00;;;;;;;15.03;69.72;99363.84;5093406;28;20522;-62
2022/11/09 03:21:43;;;;;;;2.43;1.20;;;;;;;15.01;69.68;99365.88;5095226;28;20468;-62
2022/11/09 03:24:09;;;;;;;2.53;1.40;;;;;;;14.87;70.22;99366.75;5094203;28;20475;-61
2022/11/09 03:26:36;;;;;;;2.97;1.47;;;;;;;14.90;70.49;99362.88;5087862;28;20476;-61
2022/11/09 03:29:04;;;;;;;3.13;1.50;;;;;;;14.99;70.03;99369.78;5097766;28;20480;-62
2022/11/09 03:31:33;;;;;;;2.20;1.13;;;;;;;14.94;70.09;99366.84;5080765;28;20561;-61
2022/11/09 03:34:00;;;;;;;1.63;1.20;;;;;;;14.93;70.22;99360.63;5089934;28;21169;-62
2022/11/09 03:36:26;;;;;;;1.93;1.23;;;;;;;14.86;70.79;99363.25;5093468;28;20835;-61
2022/11/09 03:38:53;;;;;;;1.93;1.13;;;;;;;14.78;70.84;99357.16;5084366;28;20512;-63
2022/11/09 03:41:20;;;;;;;2.13;1.90;;;;;;;14.83;70.76;99360.94;5099843;28;20479;-62
2022/11/09 03:43:46;;;;;;;2.77;1.40;;;;;;;14.92;70.48;99364.34;5089701;28;20533;-62
2022/11/09 03:46:14;;;;;;;1.90;1.10;;;;;;;14.85;70.90;99372.34;5089163;28;20476;-61
2022/11/09 03:48:41;;;;;;;3.47;1.33;;;;;;;14.82;70.84;99361.94;5089737;28;20454;-61
2022/11/09 03:51:08;;;;;;;2.60;1.20;;;;;;;14.73;71.28;99365.78;5097496;28;20463;-62
2022/11/09 03:53:34;;;;;;;2.40;1.63;;;;;;;14.68;71.52;99360.97;5091890;28;20495;-62
2022/11/09 03:56:01;;;;;;;3.27;1.03;;;;;;;14.68;71.52;99371.72;5085794;28;20552;-62
2022/11/09 03:58:27;;;;;;;2.37;1.53;;;;;;;14.80;71.19;99380.13;5081480;28;20503;-62
2022/11/09 04:00:54;;;;;;;5.97;1.40;;;;;;;14.77;71.25;99380.53;5081135;28;20540;-62
2022/11/09 04:03:22;;;;;;;3.03;1.30;;;;;;;14.69;71.65;99375.25;5081156;28;20433;-62
2022/11/09 04:05:49;;;;;;;1.90;1.13;;;;;;;14.78;71.49;99368.75;5096087;28;20478;-62
2022/11/09 04:08:15;;;;;;;1.80;1.10;;;;;;;14.62;72.22;99364.41;5099102;28;20963;-62
2022/11/09 04:10:42;;;;;;;2.33;1.30;;;;;;;14.64;72.14;99370.44;5085149;28;20471;-61
2022/11/09 04:13:08;;;;;;;3.10;1.30;;;;;;;14.59;72.37;99364.78;5098853;28;20909;-60
2022/11/09 04:15:35;;;;;;;4.23;1.57;;;;;;;14.55;72.35;99360.78;5095451;28;20474;-61
2022/11/09 04:18:02;;;;;;;3.40;1.50;;;;;;;14.57;72.45;99366.81;5094630;28;20485;-61
2022/11/09 04:20:31;;;;;;;2.57;1.37;;;;;;;14.62;72.26;99372.50;5098203;28;20463;-61
2022/11/09 04:23:00;;;;;;;2.63;1.50;;;;;;;14.60;72.64;99368.31;5080191;28;20490;-62
2022/11/09 04:25:28;;;;;;;2.03;1.73;;;;;;;14.65;72.23;99369.44;5083091;28;20471;-61
2022/11/09 04:27:55;;;;;;;2.50;1.37;;;;;;;14.53;72.62;99365.53;5083761;28;20460;-61
2022/11/09 04:30:22;;;;;;;4.27;1.70;;;;;;;14.61;72.67;99378.88;5100409;28;20443;-61
2022/11/09 04:32:49;;;;;;;2.77;1.70;;;;;;;14.56;72.84;99380.44;5091451;28;20443;-61
2022/11/09 04:35:16;;;;;;;5.20;1.70;;;;;;;14.52;72.89;99379.97;5090675;28;20441;-60
2022/11/09 04:37:44;;;;;;;2.50;1.57;;;;;;;14.54;73.05;99377.09;5081105;28;20515;-60
2022/11/09 04:40:12;;;;;;;2.17;1.50;;;;;;;14.73;72.78;99386.47;5084157;28;20507;-61
2022/11/09 04:42:38;;;;;;;2.97;1.70;;;;;;;14.56;73.30;99389.34;5097655;28;20488;-60
2022/11/09 04:45:06;;;;;;;2.70;1.70;;;;;;;14.48;73.50;99392.97;5088692;28;20471;-60
2022/11/09 04:47:32;;;;;;;1.90;1.67;;;;;;;14.61;73.07;99397.72;5081131;28;20461;-60
2022/11/09 04:49:59;;;;;;;3.47;1.67;;;;;;;14.49;73.64;99396.50;5093503;28;20468;-60
2022/11/09 04:52:25;;;;;;;3.23;1.60;;;;;;;14.51;73.46;99399.81;5099128;28;20515;-60
2022/11/09 04:54:53;;;;;;;2.93;1.30;;;;;;;14.53;73.48;99396.94;5098392;28;20514;-61
2022/11/09 04:57:20;;;;;;;1.80;1.17;;;;;;;14.50;73.56;99403.56;5089705;28;20498;-60
2022/11/09 04:59:47;;;;;;;3.10;1.30;;;;;;;14.47;73.91;99393.97;5081434;28;20925;-61
2022/11/09 05:02:14;;;;;;;5.77;1.40;;;;;;;14.54;73.72;99396.75;5080956;28;20475;-62
2022/11/09 05:04:40;;;;;;;2.67;1.70;;;;;;;14.54;73.77;99409.38;5088215;28;20460;-61
2022/11/09 05:07:07;;;;;;;2.97;1.50;;;;;;;14.54;74.03;99409.38;5087429;28;20483;-61
2022/11/09 05:09:33;;;;;;;4.00;1.70;;;;;;;14.45;74.34;99404.09;5095039;28;20615;-61
2022/11/09 05:12:02;;;;;;;2.40;1.20;;;;;;;14.48;74.30;99414.50;5085721;28;20750;-61
2022/11/09 05:14:28;;;;;;;2.90;1.23;;;;;;;14.47;74.48;99412.81;5079909;28;20448;-61
2022/11/09 05:16:55;;;;;;;3.87;1.60;;;;;;;14.45;74.62;99409.47;5097621;28;20486;-62
2022/11/09 05:19:21;;;;;;;6.43;1.67;;;;;;;14.45;74.78;99414.84;5097615;28;20508;-61
2022/11/09 05:21:48;;;;;;;2.53;1.40;;;;;;;14.46;74.47;99404.94;5090786;28;20463;-62
2022/11/09 05:24:14;;;;;;;2.80;1.30;;;;;;;14.45;75.13;99400.59;5070073;28;20496;-62
2022/11/09 05:26:42;;;;;;;3.47;1.93;;;;;;;14.44;75.14;99401.59;5072955;28;20509;-61
2022/11/09 05:29:11;;;;;;;3.97;1.60;;;;;;;14.39;75.23;99393.25;5087794;28;20243;-62
2022/11/09 05:31:39;;;;;;;3.80;1.40;;;;;;;14.37;75.39;99398.00;5082106;28;20480;-61
2022/11/09 05:34:06;;;;;;;2.60;1.47;;;;;;;14.38;75.36;99403.19;5082172;28;20531;-73
2022/11/09 05:36:33;;;;;;;3.37;1.90;;;;;;;14.41;75.26;99400.13;5085222;28;20508;-73
2022/11/09 05:39:00;;;;;;;2.23;1.13;;;;;;;14.37;75.61;99392.59;5068716;28;20521;-71
2022/11/09 05:41:27;;;;;;;3.23;1.73;;;;;;;14.43;75.49;99398.06;5088732;28;21004;-71
2022/11/09 05:43:53;;;;;;;4.20;2.20;;;;;;;14.39;75.41;99404.88;5089519;28;21146;-72
2022/11/09 05:46:21;;;;;;;2.50;1.70;;;;;;;14.39;75.53;99404.00;5082122;28;20518;-72
2022/11/09 05:48:48;;;;;;;3.10;1.57;;;;;;;14.38;75.50;99405.03;5087070;28;20505;-73
2022/11/09 05:51:15;;;;;;;2.40;1.83;;;;;;;14.35;75.72;99403.53;5081825;28;20518;-72
2022/11/09 05:53:42;;;;;;;2.40;1.83;;;;;;;14.46;75.45;99405.78;5093905;28;20948;-71
2022/11/09 05:56:10;;;;;;;4.10;1.87;;;;;;;14.43;75.42;99406.16;5102504;28;20503;-71
2022/11/09 05:58:38;;;;;;;4.67;1.97;;;;;;;14.28;76.05;99411.50;5089610;28;20528;-71
2022/11/09 06:01:05;;;;;;;1.60;1.33;;;;;;;14.49;75.45;99409.94;5100304;28;20475;-73
2022/11/09 06:03:33;;;;;;;3.40;1.80;;;;;;;14.48;75.49;99410.97;5087877;28;20475;-71
2022/11/09 06:06:01;;;;;;;5.00;1.60;;;;;;;14.45;75.48;99411.34;5082579;28;20508;-72
2022/11/09 06:08:28;;;;;;;2.70;1.77;;;;;;;14.38;75.69;99407.72;5085453;28;21030;-60
2022/11/09 06:10:58;;;;;;;4.63;1.20;;;;;;;14.58;75.37;99407.97;5083518;28;21040;-60
2022/11/09 06:13:25;;;;;;;3.90;2.00;;;;;;;14.55;75.35;99421.78;5082077;28;20531;-60
2022/11/09 06:15:53;;;;;;;2.90;1.60;;;;;;;14.57;75.11;99415.22;5091376;28;20496;-61
2022/11/09 06:18:20;;;;;;;4.00;2.10;;;;;;;14.62;75.02;99417.41;5083118;28;20453;-69
2022/11/09 06:20:51;;;;;;;2.20;1.60;;;;;;;14.48;75.31;99417.19;5099381;28;20463;-69
2022/11/09 06:23:18;;;;;;;1.90;1.47;;;;;;;14.48;75.64;99419.03;5076998;28;20470;-69
2022/11/09 06:25:44;;;;;;;6.07;2.00;;;;;;;14.47;75.50;99423.56;5086402;28;20468;-69
2022/11/09 06:28:11;;;;;;;5.57;1.90;;;;;;;14.38;75.94;99422.00;5078479;28;20457;-69
2022/11/09 06:30:38;;;;;;;4.97;1.60;;;;;;;14.46;75.55;99426.44;5075494;28;20467;-69
2022/11/09 06:33:05;;;;;;;2.27;1.53;;;;;;;14.48;75.42;99429.81;5071981;28;20476;-70
2022/11/09 06:35:32;;;;;;;4.27;1.90;;;;;;;14.48;75.48;99427.94;5068708;28;20902;-70
2022/11/09 06:38:00;;;;;;;3.93;1.70;;;;;;;14.47;75.38;99428.13;5080150;28;20452;-69
2022/11/09 06:40:27;;;;;;;4.90;1.90;;;;;;;14.39;75.79;99438.97;5088038;28;20471;-68
2022/11/09 06:42:56;;;;;;;4.40;2.13;;;;;;;14.45;75.39;99432.84;5082212;28;20837;-70
2022/11/09 06:45:23;;;;;;;3.50;1.60;;;;;;;14.46;75.46;99432.69;5077934;28;20448;-69
2022/11/09 06:47:49;;;;;;;2.77;1.63;;;;;;;14.53;75.26;99440.84;5073534;28;20464;-70
2022/11/09 06:50:16;;;;;;;6.00;2.07;;;;;;;14.45;75.43;99444.44;5078755;28;20472;-70
2022/11/09 06:52:43;;;;;;;3.50;1.70;;;;;;;14.41;75.38;99450.38;5078793;28;20485;-70
2022/11/09 06:55:11;;;;;;;2.00;1.47;;;;;;;14.36;75.59;99450.94;5077044;28;20504;-69
2022/11/09 06:57:39;;;;;;;2.77;1.77;;;;;;;14.38;75.42;99446.22;5069666;28;20452;-68
2022/11/09 07:00:07;;;;;;;3.53;1.53;;;;;;;14.46;75.16;99464.09;5067965;28;20568;-69
2022/11/09 07:02:34;;;;;;;5.60;2.03;;;;;;;14.43;75.28;99461.78;5078857;28;20898;-69
2022/11/09 07:05:00;;;;;;;3.30;1.23;;;;;;;14.44;75.36;99463.44;5078984;28;20515;-68
2022/11/09 07:07:27;;;;;;;4.30;1.40;;;;;;;14.45;75.36;99476.72;5078261;28;20472;-69
2022/11/09 07:09:54;;;;;;;3.93;1.83;;;;;;;14.41;75.49;99469.19;5097409;28;20571;-69
2022/11/09 07:12:22;;;;;;;4.40;1.43;;;;;;;14.36;75.48;99471.63;5074591;28;20484;-69
2022/11/09 07:14:49;;;;;;;3.47;1.67;;;;;;;14.32;75.64;99472.00;5068966;28;20441;-70
2022/11/09 07:17:16;;;;;;;2.87;1.50;;;;;;;14.30;75.48;99468.66;5070299;28;20484;-69
2022/11/09 07:19:42;;;;;;;4.17;1.93;;;;;;;14.45;74.92;99467.81;5069345;28;20546;-70
2022/11/09 07:22:09;;;;;;;5.90;1.83;;;;;;;14.48;74.61;99470.16;5073172;28;20484;-62
2022/11/09 07:24:36;;;;;;;4.20;1.40;;;;;;;14.41;74.14;99466.50;5068738;28;20441;-62
2022/11/09 07:27:02;;;;;;;3.57;1.23;;;;;;;14.42;72.41;99465.50;5076465;28;20484;-61
2022/11/09 07:29:30;;;;;;;2.57;1.20;;;;;;;14.48;72.74;99479.03;5077147;28;20506;-62
2022/11/09 07:31:57;;;;;;;3.23;1.50;;;;;;;14.40;73.03;99472.91;5072513;28;20508;-62
2022/11/09 07:34:24;;;;;;;3.27;1.50;;;;;;;14.48;72.55;99465.59;5080715;28;20449;-61
2022/11/09 07:36:53;;;;;;;4.33;1.20;;;;;;;14.57;72.47;99468.19;5093745;28;20515;-61
2022/11/09 07:39:20;;;;;;;2.40;1.30;;;;;;;14.50;72.69;99466.25;5069969;28;20489;-61
2022/11/09 07:41:47;;;;;;;2.60;1.30;;;;;;;14.54;73.02;99474.78;5077337;28;20530;-61
2022/11/09 07:44:17;;;;;;;4.20;1.57;;;;;;;14.62;72.93;99469.34;5074775;28;20500;-62
2022/11/09 07:46:46;;;;;;;4.10;2.00;;;;;;;14.59;73.41;99464.31;5075036;28;20480;-60
2022/11/09 07:49:13;;;;;;;4.33;1.40;;;;;;;14.56;73.93;99466.53;5079218;28;20470;-60
2022/11/09 07:51:40;;;;;;;3.43;1.50;;;;;;;14.49;74.08;99469.97;5077265;28;20528;-60
2022/11/09 07:54:07;;;;;;;4.70;2.13;;;;;;;14.72;73.07;99470.91;5078902;28;20456;-60
2022/11/09 07:56:33;;;;;;;5.33;1.57;;;;;;;14.60;72.97;99476.75;5079798;28;20500;-61
2022/11/09 07:59:00;;;;;;;4.67;1.40;;;;;;;14.52;73.31;99478.69;5079432;28;20764;-60
2022/11/09 08:01:27;;;;;;;3.33;1.60;;;;;;;14.61;72.71;99473.03;5078167;28;20476;-60
2022/11/09 08:03:55;;;;;;;3.47;2.03;;;;;;;14.68;72.01;99475.81;5074932;28;20805;-60
2022/11/09 08:06:26;;;;;;;4.60;1.87;;;;;;;14.81;71.48;99469.78;5079369;28;20472;-61
2022/11/09 08:08:53;;;;;;;6.20;2.30;;;;;;;14.90;70.96;99483.97;5078895;28;20639;-60
2022/11/09 08:11:20;;;;;;;4.50;2.20;;;;;;;14.81;71.19;99488.63;5087098;28;20578;-60
2022/11/09 08:13:47;;;;;;;5.33;2.50;;;;;;;14.86;71.00;99486.22;5099847;28;20428;-60
2022/11/09 08:16:13;;;;;;;5.10;2.10;;;;;;;14.83;71.37;99483.91;5093644;28;20482;-60
2022/11/09 08:18:40;;;;;;;11.10;2.47;;;;;;;14.83;71.36;99489.28;5091564;28;20482;-60
2022/11/09 08:21:08;;;;;;;5.57;1.80;;;;;;;15.00;70.97;99495.28;5078507;28;20503;-61
2022/11/09 08:23:35;;;;;;;5.70;2.00;;;;;;;14.86;70.82;99495.13;5091158;28;20508;-61
2022/11/09 08:26:02;;;;;;;4.40;1.93;;;;;;;14.98;70.02;99503.56;5094157;28;20505;-60
2022/11/09 08:28:29;;;;;;;5.57;2.10;;;;;;;14.93;70.03;99502.44;5080589;28;20481;-60
2022/11/09 08:30:57;;;;;;;7.07;2.23;;;;;;;15.32;68.91;99504.78;5093659;28;20468;-60
2022/11/09 08:33:23;;;;;;;6.73;2.03;;;;;;;16.43;65.59;99506.25;5094675;28;20447;-60
2022/11/09 08:35:50;;;;;;;7.43;2.10;;;;;;;16.76;62.86;99499.16;5098554;28;20920;-60
2022/11/09 08:38:18;;;;;;;3.93;1.70;;;;;;;16.32;63.60;99496.81;5090213;28;20485;-60
2022/11/09 08:40:45;;;;;;;4.30;1.70;;;;;;;15.50;66.85;99503.50;5078153;28;20496;-61
2022/11/09 08:43:12;;;;;;;3.90;1.50;;;;;;;15.38;67.60;99513.94;5078482;28;20485;-60
2022/11/09 08:45:40;;;;;;;2.83;1.80;;;;;;;15.03;68.66;99509.22;5078121;28;20516;-60
2022/11/09 08:48:07;;;;;;;6.13;1.40;;;;;;;14.95;68.92;99514.69;5085520;28;20477;-60
2022/11/09 08:50:35;;;;;;;2.93;1.37;;;;;;;14.91;69.39;99508.00;5098644;28;21090;-61
2022/11/09 08:53:03;;;;;;;3.23;1.70;;;;;;;14.99;69.53;99513.28;5097119;28;20544;-61
2022/11/09 08:55:31;;;;;;;3.83;1.33;;;;;;;14.94;69.23;99513.00;5098339;28;20472;-61
2022/11/09 08:57:59;;;;;;;1.60;0.97;;;;;;;14.87;69.48;99517.47;5083849;28;20441;-61
2022/11/09 09:00:27;;;;;;;7.23;1.77;;;;;;;14.78;69.90;99519.44;5082566;28;20556;-60
2022/11/09 09:02:53;;;;;;;3.53;2.00;;;;;;;14.98;69.18;99525.09;5082853;28;20479;-61
2022/11/09 09:05:20;;;;;;;4.90;1.80;;;;;;;15.46;68.18;99519.22;5082610;28;20444;-61
2022/11/09 09:07:47;;;;;;;4.67;1.90;;;;;;;16.63;63.76;99526.09;5102140;28;20455;-60
2022/11/09 09:10:13;;;;;;;3.50;1.70;;;;;;;16.61;62.83;99530.00;5090703;28;20456;-61
2022/11/09 09:12:42;;;;;;;6.00;1.50;;;;;;;16.90;62.01;99529.78;5083828;28;20516;-61
2022/11/09 09:15:09;;;;;;;6.47;1.50;;;;;;;17.99;58.88;99536.22;5081779;28;20456;-60
2022/11/09 09:17:36;;;;;;;4.57;1.53;;;;;;;18.19;57.29;99536.22;5082664;28;20763;-61
2022/11/09 09:20:03;;;;;;;4.53;1.13;;;;;;;18.51;56.20;99541.00;5093719;28;20502;-61
2022/11/09 09:22:30;;;;;;;5.60;1.03;;;;;;;18.33;54.94;99536.22;5093509;28;20644;-60
2022/11/09 09:24:56;;;;;;;4.43;1.23;;;;;;;17.26;57.71;99544.09;5103173;28;20507;-61
2022/11/09 09:27:23;;;;;;;3.27;1.67;;;;;;;17.23;58.85;99544.50;5102263;28;20531;-61
2022/11/09 09:29:51;;;;;;;2.60;1.10;;;;;;;18.55;54.98;99555.78;5089464;28;20442;-61
2022/11/09 09:32:17;;;;;;;2.90;1.27;;;;;;;18.46;55.07;99554.34;5083886;28;20483;-61
2022/11/09 09:34:44;;;;;;;3.17;0.90;;;;;;;17.91;56.24;99546.38;5077275;28;20458;-61
2022/11/09 09:37:11;;;;;;;5.10;1.30;;;;;;;17.13;58.94;99555.66;5081858;28;20511;-61
2022/11/09 09:39:37;;;;;;;3.50;1.40;;;;;;;16.80;60.15;99558.16;5081509;28;20458;-61
2022/11/09 09:42:06;;;;;;;4.27;1.13;;;;;;;16.50;61.55;99561.06;5080590;28;20520;-61
2022/11/09 09:44:36;;;;;;;4.43;1.10;;;;;;;17.79;58.18;99552.34;5074907;28;20440;-61
2022/11/09 09:47:11;;;;;;;4.07;0.93;;;;;;;18.56;54.67;99569.09;5072590;28;20491;-61
2022/11/09 09:49:41;;;;;;;2.50;0.90;;;;;;;17.75;55.86;99559.22;5071455;28;20463;-61
2022/11/09 09:52:15;;;;;;;3.97;1.07;;;;;;;17.47;56.85;99562.88;5070675;28;20484;-61
2022/11/09 09:54:43;;;;;;;3.70;1.33;;;;;;;18.25;55.29;99567.84;5077422;28;20459;-61
2022/11/09 09:57:14;;;;;;;4.10;1.20;;;;;;;18.03;55.09;99560.97;5082189;28;20841;-61
2022/11/09 09:59:42;;;;;;;5.43;1.17;;;;;;;18.02;55.56;99562.03;5081667;28;20455;-62
2022/11/09 10:02:19;;;;;;;2.97;1.00;;;;;;;18.42;53.90;99567.47;5077983;28;20479;-62
2022/11/09 10:04:46;;;;;;;2.53;0.87;;;;;;;18.50;53.43;99567.22;5094070;28;20473;-62
2022/11/09 10:07:16;;;;;;;2.50;0.90;;;;;;;19.18;51.50;99566.94;5081150;28;20508;-62
2022/11/09 10:10:01;;;;;;;3.00;1.20;;;;;;;19.14;52.39;99572.97;5089601;28;20481;-62
2022/11/09 10:12:37;;;;;;;2.50;1.10;;;;;;;18.47;53.46;99564.09;5101894;28;20472;-62
2022/11/09 10:15:12;;;;;;;3.53;1.10;;;;;;;18.15;53.78;99572.84;5101720;28;20454;-61
2022/11/09 10:17:49;;;;;;;5.07;0.97;;;;;;;19.40;51.20;99560.38;5086592;28;20453;-62
2022/11/09 10:20:24;;;;;;;5.07;1.10;;;;;;;19.77;50.23;99563.34;5076414;28;21034;-62
2022/11/09 10:23:00;;;;;;;6.40;1.40;;;;;;;20.41;48.39;99556.81;5089822;28;20448;-62
2022/11/09 10:25:27;;;;;;;4.93;1.27;;;;;;;19.28;51.22;99563.75;5080600;28;20481;-62
2022/11/09 10:27:56;;;;;;;2.90;1.17;;;;;;;19.41;50.60;99543.06;5086155;28;20450;-62
2022/11/09 10:30:25;;;;;;;3.63;1.17;;;;;;;20.15;49.22;99563.28;5081290;28;20509;-62
2022/11/09 10:32:55;;;;;;;2.33;0.93;;;;;;;19.58;50.41;99563.19;5092595;28;20443;-62
2022/11/09 10:35:25;;;;;;;1.90;1.00;;;;;;;19.84;49.64;99547.84;5075755;28;20458;-62
2022/11/09 10:37:53;;;;;;;4.30;1.27;;;;;;;19.71;51.00;99537.91;5087415;28;20478;-62
2022/11/09 10:40:24;;;;;;;2.20;1.10;;;;;;;20.59;48.24;99550.63;5084172;28;20517;-61
2022/11/09 10:42:53;;;;;;;2.70;1.17;;;;;;;21.55;46.35;99547.50;5079593;28;20494;-62
2022/11/09 10:45:31;;;;;;;4.07;1.10;;;;;;;20.81;47.38;99544.78;5086542;28;20447;-62
2022/11/09 10:48:00;;;;;;;2.10;1.07;;;;;;;19.50;49.98;99542.59;5096809;28;21033;-61
2022/11/09 10:50:30;;;;;;;2.70;0.80;;;;;;;20.31;48.30;99546.47;5098272;28;20475;-61
2022/11/09 10:53:13;;;;;;;3.57;1.07;;;;;;;20.24;48.95;99548.41;5099297;28;20498;-61
2022/11/09 10:55:50;;;;;;;3.70;1.33;;;;;;;19.04;51.64;99540.91;5080271;28;20496;-61
2022/11/09 10:58:31;;;;;;;2.40;1.30;;;;;;;18.50;53.34;99548.28;5090580;28;20486;-61
2022/11/09 11:01:01;;;;;;;7.13;2.23;;;;;;;17.96;54.95;99554.72;5090291;28;20560;-61
2022/11/09 11:03:30;;;;;;;2.63;0.80;;;;;;;18.18;53.82;99552.66;5098055;28;20496;-61
2022/11/09 11:05:58;;;;;;;4.10;1.30;;;;;;;17.84;53.79;99562.56;5094173;28;20850;-62
2022/11/09 11:08:28;;;;;;;4.60;1.30;;;;;;;17.66;52.87;99555.88;5094697;28;20448;-61
2022/11/09 11:11:23;;;;;;;3.07;1.27;;;;;;;18.50;51.27;99547.44;5094782;28;20470;-61
2022/11/09 11:14:09;;;;;;;3.70;1.40;;;;;;;17.98;52.56;99558.88;5076496;28;20498;-61
2022/11/09 11:16:37;;;;;;;2.00;1.20;;;;;;;18.40;51.22;99551.44;5079530;28;20505;-61
2022/11/09 11:19:06;;;;;;;2.60;1.00;;;;;;;17.53;53.43;99558.53;5078844;28;20471;-62
2022/11/09 11:21:32;;;;;;;2.50;0.97;;;;;;;17.22;54.88;99556.34;5078819;28;20741;-61
2022/11/09 11:24:15;;;;;;;2.40;1.20;;;;;;;17.02;56.03;99559.78;5080300;28;20447;-61
2022/11/09 11:26:48;;;;;;;2.20;1.80;;;;;;;16.94;55.38;99549.97;5078870;28;20494;-62
2022/11/09 11:29:28;;;;;;;5.07;1.67;;;;;;;17.01;54.32;99543.78;5078355;28;20576;-62
2022/11/09 11:31:55;;;;;;;6.30;1.37;;;;;;;16.84;54.68;99557.59;5076733;28;20472;-61
2022/11/09 11:34:23;;;;;;;2.90;1.17;;;;;;;16.45;55.81;99561.66;5079769;28;20449;-61
2022/11/09 11:36:58;;;;;;;4.23;1.10;;;;;;;16.48;55.03;99552.34;5075756;28;20507;-61
2022/11/09 11:39:34;;;;;;;4.63;1.00;;;;;;;17.09;54.03;99563.34;5077347;28;20457;-61